sensor_id;sensor_type;location;lat;lon;timestamp;P1;durP1;ratioP1;P2;durP2;ratioP2
33453;SDS011;39400;49.744;7.012;2023-02-10T00:00:26;24.42;;;12.60;;
33453;SDS011;39400;49.744;7.012;2023-02-10T00:02:51;19.88;;;11.60;;
33453;SDS011;39400;49.744;7.012;2023-02-10T00:05:17;26.77;;;12.90;;
33453;SDS011;39400;49.744;7.012;2023-02-10T00:07:42;23.52;;;11.70;;
33453;SDS011;39400;49.744;7.012;2023-02-10T00:10:07;25.17;;;11.38;;
33453;SDS011;39400;49.744;7.012;2023-02-10T00:12:35;27.25;;;14.30;;
33453;SDS011;39400;49.744;7.012;2023-02-10T00:15:01;20.92;;;11.88;;
33453;SDS011;39400;49.744;7.012;2023-02-10T00:17:26;20.67;;;11.65;;
33453;SDS011;39400;49.744;7.012;2023-02-10T00:19:52;23.08;;;11.90;;
33453;SDS011;39400;49.744;7.012;2023-02-10T00:22:17;21.65;;;10.85;;
33453;SDS011;39400;49.744;7.012;2023-02-10T00:24:42;21.67;;;11.23;;
33453;SDS011;39400;49.744;7.012;2023-02-10T00:27:08;19.75;;;11.35;;
33453;SDS011;39400;49.744;7.012;2023-02-10T00:29:33;21.52;;;11.55;;
33453;SDS011;39400;49.744;7.012;2023-02-10T00:31:58;23.48;;;11.48;;
33453;SDS011;39400;49.744;7.012;2023-02-10T00:34:23;20.25;;;10.07;;
33453;SDS011;39400;49.744;7.012;2023-02-10T00:36:49;22.02;;;11.55;;
33453;SDS011;39400;49.744;7.012;2023-02-10T00:39:16;21.15;;;10.75;;
33453;SDS011;39400;49.744;7.012;2023-02-10T00:41:42;20.20;;;12.43;;
33453;SDS011;39400;49.744;7.012;2023-02-10T00:44:08;20.15;;;10.35;;
33453;SDS011;39400;49.744;7.012;2023-02-10T00:46:35;24.05;;;12.65;;
33453;SDS011;39400;49.744;7.012;2023-02-10T00:49:00;18.65;;;10.48;;
33453;SDS011;39400;49.744;7.012;2023-02-10T00:51:27;21.13;;;10.52;;
33453;SDS011;39400;49.744;7.012;2023-02-10T00:53:52;19.35;;;11.05;;
33453;SDS011;39400;49.744;7.012;2023-02-10T00:56:18;20.95;;;9.88;;
33453;SDS011;39400;49.744;7.012;2023-02-10T00:58:45;20.58;;;11.05;;
33453;SDS011;39400;49.744;7.012;2023-02-10T01:01:11;22.88;;;11.82;;
33453;SDS011;39400;49.744;7.012;2023-02-10T01:03:37;20.90;;;11.50;;
33453;SDS011;39400;49.744;7.012;2023-02-10T01:06:03;23.35;;;12.25;;
33453;SDS011;39400;49.744;7.012;2023-02-10T01:08:29;21.52;;;10.90;;
33453;SDS011;39400;49.744;7.012;2023-02-10T01:10:58;24.20;;;12.45;;
33453;SDS011;39400;49.744;7.012;2023-02-10T01:13:24;23.70;;;11.88;;
33453;SDS011;39400;49.744;7.012;2023-02-10T01:15:49;23.20;;;11.90;;
33453;SDS011;39400;49.744;7.012;2023-02-10T01:18:15;20.17;;;10.25;;
33453;SDS011;39400;49.744;7.012;2023-02-10T01:20:41;23.70;;;11.63;;
33453;SDS011;39400;49.744;7.012;2023-02-10T01:23:07;21.65;;;10.70;;
33453;SDS011;39400;49.744;7.012;2023-02-10T01:25:33;20.98;;;10.13;;
33453;SDS011;39400;49.744;7.012;2023-02-10T01:27:59;18.17;;;9.73;;
33453;SDS011;39400;49.744;7.012;2023-02-10T01:30:25;20.02;;;10.20;;
33453;SDS011;39400;49.744;7.012;2023-02-10T01:32:52;20.50;;;9.57;;
33453;SDS011;39400;49.744;7.012;2023-02-10T01:35:18;24.35;;;11.18;;
33453;SDS011;39400;49.744;7.012;2023-02-10T01:37:43;19.33;;;10.02;;
33453;SDS011;39400;49.744;7.012;2023-02-10T01:40:09;26.52;;;10.55;;
33453;SDS011;39400;49.744;7.012;2023-02-10T01:42:34;17.92;;;10.27;;
33453;SDS011;39400;49.744;7.012;2023-02-10T01:45:10;21.52;;;12.13;;
33453;SDS011;39400;49.744;7.012;2023-02-10T01:47:42;16.52;;;9.15;;
33453;SDS011;39400;49.744;7.012;2023-02-10T01:50:10;21.25;;;10.93;;
33453;SDS011;39400;49.744;7.012;2023-02-10T01:52:36;23.23;;;13.40;;
33453;SDS011;39400;49.744;7.012;2023-02-10T01:55:04;22.20;;;11.25;;
33453;SDS011;39400;49.744;7.012;2023-02-10T01:57:31;21.10;;;10.63;;
33453;SDS011;39400;49.744;7.012;2023-02-10T01:59:58;22.33;;;11.27;;
33453;SDS011;39400;49.744;7.012;2023-02-10T02:02:37;21.85;;;10.65;;
33453;SDS011;39400;49.744;7.012;2023-02-10T02:05:04;24.80;;;11.98;;
33453;SDS011;39400;49.744;7.012;2023-02-10T02:07:32;21.88;;;10.55;;
33453;SDS011;39400;49.744;7.012;2023-02-10T02:10:02;23.43;;;12.10;;
33453;SDS011;39400;49.744;7.012;2023-02-10T02:12:37;24.90;;;12.73;;
33453;SDS011;39400;49.744;7.012;2023-02-10T02:18:16;23.75;;;12.48;;
33453;SDS011;39400;49.744;7.012;2023-02-10T02:21:05;23.15;;;12.60;;
33453;SDS011;39400;49.744;7.012;2023-02-10T02:24:00;18.58;;;9.70;;
33453;SDS011;39400;49.744;7.012;2023-02-10T02:32:02;26.77;;;13.82;;
33453;SDS011;39400;49.744;7.012;2023-02-10T02:34:30;26.92;;;14.02;;
33453;SDS011;39400;49.744;7.012;2023-02-10T02:37:12;23.65;;;12.68;;
33453;SDS011;39400;49.744;7.012;2023-02-10T02:39:42;25.08;;;13.95;;
33453;SDS011;39400;49.744;7.012;2023-02-10T02:42:22;24.20;;;13.13;;
33453;SDS011;39400;49.744;7.012;2023-02-10T02:55:59;23.88;;;13.00;;
33453;SDS011;39400;49.744;7.012;2023-02-10T03:01:16;29.52;;;13.50;;
33453;SDS011;39400;49.744;7.012;2023-02-10T03:03:46;22.58;;;12.07;;
33453;SDS011;39400;49.744;7.012;2023-02-10T03:06:11;28.30;;;12.63;;
33453;SDS011;39400;49.744;7.012;2023-02-10T03:08:37;24.10;;;14.65;;
33453;SDS011;39400;49.744;7.012;2023-02-10T03:11:05;23.15;;;12.25;;
33453;SDS011;39400;49.744;7.012;2023-02-10T03:13:30;25.08;;;13.20;;
33453;SDS011;39400;49.744;7.012;2023-02-10T03:15:57;27.60;;;12.75;;
33453;SDS011;39400;49.744;7.012;2023-02-10T03:18:23;26.67;;;13.38;;
33453;SDS011;39400;49.744;7.012;2023-02-10T03:20:49;24.92;;;12.75;;
33453;SDS011;39400;49.744;7.012;2023-02-10T03:23:14;22.90;;;12.05;;
33453;SDS011;39400;49.744;7.012;2023-02-10T03:25:39;21.85;;;12.07;;
33453;SDS011;39400;49.744;7.012;2023-02-10T03:28:04;20.48;;;10.48;;
33453;SDS011;39400;49.744;7.012;2023-02-10T03:30:30;23.30;;;10.63;;
33453;SDS011;39400;49.744;7.012;2023-02-10T03:32:55;19.25;;;10.98;;
33453;SDS011;39400;49.744;7.012;2023-02-10T03:35:20;21.98;;;12.13;;
33453;SDS011;39400;49.744;7.012;2023-02-10T03:37:46;21.75;;;11.70;;
33453;SDS011;39400;49.744;7.012;2023-02-10T03:40:11;23.45;;;11.98;;
33453;SDS011;39400;49.744;7.012;2023-02-10T03:42:37;24.33;;;13.25;;
33453;SDS011;39400;49.744;7.012;2023-02-10T03:45:02;21.98;;;12.48;;
33453;SDS011;39400;49.744;7.012;2023-02-10T03:47:28;24.85;;;12.00;;
33453;SDS011;39400;49.744;7.012;2023-02-10T03:49:53;22.42;;;11.30;;
33453;SDS011;39400;49.744;7.012;2023-02-10T03:52:18;26.35;;;12.45;;
33453;SDS011;39400;49.744;7.012;2023-02-10T03:54:44;23.38;;;12.85;;
33453;SDS011;39400;49.744;7.012;2023-02-10T03:57:10;21.55;;;10.88;;
33453;SDS011;39400;49.744;7.012;2023-02-10T03:59:36;22.60;;;12.20;;
33453;SDS011;39400;49.744;7.012;2023-02-10T04:02:01;23.70;;;13.05;;
33453;SDS011;39400;49.744;7.012;2023-02-10T04:04:27;23.58;;;12.75;;
33453;SDS011;39400;49.744;7.012;2023-02-10T04:06:52;25.90;;;12.48;;
33453;SDS011;39400;49.744;7.012;2023-02-10T04:09:17;22.20;;;11.68;;
33453;SDS011;39400;49.744;7.012;2023-02-10T04:11:43;22.70;;;12.40;;
33453;SDS011;39400;49.744;7.012;2023-02-10T04:14:08;22.65;;;12.88;;
33453;SDS011;39400;49.744;7.012;2023-02-10T04:16:33;27.35;;;12.75;;
33453;SDS011;39400;49.744;7.012;2023-02-10T04:18:59;24.10;;;13.80;;
33453;SDS011;39400;49.744;7.012;2023-02-10T04:21:24;22.60;;;11.48;;
33453;SDS011;39400;49.744;7.012;2023-02-10T04:23:50;22.63;;;12.70;;
33453;SDS011;39400;49.744;7.012;2023-02-10T04:26:16;20.80;;;11.00;;
33453;SDS011;39400;49.744;7.012;2023-02-10T04:28:41;25.08;;;13.00;;
33453;SDS011;39400;49.744;7.012;2023-02-10T04:31:06;21.40;;;11.68;;
33453;SDS011;39400;49.744;7.012;2023-02-10T04:33:32;17.55;;;10.25;;
33453;SDS011;39400;49.744;7.012;2023-02-10T04:35:57;22.20;;;12.35;;
33453;SDS011;39400;49.744;7.012;2023-02-10T04:38:23;27.95;;;13.10;;
33453;SDS011;39400;49.744;7.012;2023-02-10T04:40:49;23.05;;;12.18;;
33453;SDS011;39400;49.744;7.012;2023-02-10T04:43:14;22.33;;;10.98;;
33453;SDS011;39400;49.744;7.012;2023-02-10T04:45:40;21.50;;;12.50;;
33453;SDS011;39400;49.744;7.012;2023-02-10T04:48:05;26.48;;;13.35;;
33453;SDS011;39400;49.744;7.012;2023-02-10T04:50:31;25.48;;;13.05;;
33453;SDS011;39400;49.744;7.012;2023-02-10T04:52:56;23.70;;;13.65;;
33453;SDS011;39400;49.744;7.012;2023-02-10T04:55:22;25.77;;;14.63;;
33453;SDS011;39400;49.744;7.012;2023-02-10T04:57:47;25.67;;;13.82;;
33453;SDS011;39400;49.744;7.012;2023-02-10T05:00:13;26.65;;;14.43;;
33453;SDS011;39400;49.744;7.012;2023-02-10T05:02:39;26.25;;;13.43;;
33453;SDS011;39400;49.744;7.012;2023-02-10T05:05:05;27.25;;;13.25;;
33453;SDS011;39400;49.744;7.012;2023-02-10T05:07:30;23.88;;;13.40;;
33453;SDS011;39400;49.744;7.012;2023-02-10T05:09:56;23.52;;;14.10;;
33453;SDS011;39400;49.744;7.012;2023-02-10T05:12:21;20.85;;;12.32;;
33453;SDS011;39400;49.744;7.012;2023-02-10T05:14:46;26.40;;;14.30;;
33453;SDS011;39400;49.744;7.012;2023-02-10T05:17:12;20.65;;;12.35;;
33453;SDS011;39400;49.744;7.012;2023-02-10T05:19:37;24.75;;;12.70;;
33453;SDS011;39400;49.744;7.012;2023-02-10T05:22:03;24.23;;;13.65;;
33453;SDS011;39400;49.744;7.012;2023-02-10T05:24:28;28.23;;;15.65;;
33453;SDS011;39400;49.744;7.012;2023-02-10T05:26:53;21.40;;;12.20;;
33453;SDS011;39400;49.744;7.012;2023-02-10T05:29:19;29.20;;;16.38;;
33453;SDS011;39400;49.744;7.012;2023-02-10T05:31:44;28.33;;;14.50;;
33453;SDS011;39400;49.744;7.012;2023-02-10T05:34:10;23.90;;;13.15;;
33453;SDS011;39400;49.744;7.012;2023-02-10T05:36:35;25.02;;;14.05;;
33453;SDS011;39400;49.744;7.012;2023-02-10T05:39:00;25.70;;;13.55;;
33453;SDS011;39400;49.744;7.012;2023-02-10T05:41:26;24.58;;;13.30;;
33453;SDS011;39400;49.744;7.012;2023-02-10T05:43:51;24.73;;;13.73;;
33453;SDS011;39400;49.744;7.012;2023-02-10T05:46:16;28.85;;;15.85;;
33453;SDS011;39400;49.744;7.012;2023-02-10T05:48:41;26.95;;;13.98;;
33453;SDS011;39400;49.744;7.012;2023-02-10T05:51:07;30.52;;;15.40;;
33453;SDS011;39400;49.744;7.012;2023-02-10T05:53:32;28.52;;;15.25;;
33453;SDS011;39400;49.744;7.012;2023-02-10T05:55:57;29.45;;;15.65;;
33453;SDS011;39400;49.744;7.012;2023-02-10T05:58:23;26.80;;;15.05;;
33453;SDS011;39400;49.744;7.012;2023-02-10T06:00:48;32.53;;;17.35;;
33453;SDS011;39400;49.744;7.012;2023-02-10T06:03:13;28.73;;;15.38;;
33453;SDS011;39400;49.744;7.012;2023-02-10T06:05:38;33.85;;;18.63;;
33453;SDS011;39400;49.744;7.012;2023-02-10T06:08:04;34.92;;;18.73;;
33453;SDS011;39400;49.744;7.012;2023-02-10T06:10:29;33.97;;;18.55;;
33453;SDS011;39400;49.744;7.012;2023-02-10T06:12:54;33.72;;;18.80;;
33453;SDS011;39400;49.744;7.012;2023-02-10T06:15:20;29.13;;;16.52;;
33453;SDS011;39400;49.744;7.012;2023-02-10T06:17:45;33.20;;;17.42;;
33453;SDS011;39400;49.744;7.012;2023-02-10T06:20:10;31.40;;;15.80;;
33453;SDS011;39400;49.744;7.012;2023-02-10T06:22:36;31.75;;;16.42;;
33453;SDS011;39400;49.744;7.012;2023-02-10T06:25:01;36.78;;;18.35;;
33453;SDS011;39400;49.744;7.012;2023-02-10T06:27:26;36.58;;;18.52;;
33453;SDS011;39400;49.744;7.012;2023-02-10T06:29:52;43.15;;;19.10;;
33453;SDS011;39400;49.744;7.012;2023-02-10T06:32:17;37.08;;;18.58;;
33453;SDS011;39400;49.744;7.012;2023-02-10T06:34:42;33.72;;;16.73;;
33453;SDS011;39400;49.744;7.012;2023-02-10T06:37:08;33.45;;;15.75;;
33453;SDS011;39400;49.744;7.012;2023-02-10T06:39:33;40.90;;;20.88;;
33453;SDS011;39400;49.744;7.012;2023-02-10T06:41:58;36.25;;;19.30;;
33453;SDS011;39400;49.744;7.012;2023-02-10T06:44:24;34.28;;;18.45;;
33453;SDS011;39400;49.744;7.012;2023-02-10T06:46:49;33.33;;;17.00;;
33453;SDS011;39400;49.744;7.012;2023-02-10T06:49:14;25.48;;;13.93;;
33453;SDS011;39400;49.744;7.012;2023-02-10T06:51:39;34.75;;;18.20;;
33453;SDS011;39400;49.744;7.012;2023-02-10T06:54:05;34.53;;;17.42;;
33453;SDS011;39400;49.744;7.012;2023-02-10T06:56:30;29.42;;;16.23;;
33453;SDS011;39400;49.744;7.012;2023-02-10T06:58:55;61.55;;;24.45;;
33453;SDS011;39400;49.744;7.012;2023-02-10T07:01:21;85.30;;;32.45;;
33453;SDS011;39400;49.744;7.012;2023-02-10T07:03:46;85.93;;;35.38;;
33453;SDS011;39400;49.744;7.012;2023-02-10T07:06:11;77.57;;;32.33;;
33453;SDS011;39400;49.744;7.012;2023-02-10T07:08:37;68.97;;;31.23;;
33453;SDS011;39400;49.744;7.012;2023-02-10T07:11:02;58.38;;;25.17;;
33453;SDS011;39400;49.744;7.012;2023-02-10T07:13:27;67.10;;;30.75;;
33453;SDS011;39400;49.744;7.012;2023-02-10T07:15:53;54.88;;;26.10;;
33453;SDS011;39400;49.744;7.012;2023-02-10T07:18:18;46.63;;;22.38;;
33453;SDS011;39400;49.744;7.012;2023-02-10T07:20:43;40.90;;;20.65;;
33453;SDS011;39400;49.744;7.012;2023-02-10T07:23:09;49.08;;;22.67;;
33453;SDS011;39400;49.744;7.012;2023-02-10T07:25:34;39.25;;;20.25;;
33453;SDS011;39400;49.744;7.012;2023-02-10T07:27:59;36.83;;;17.92;;
33453;SDS011;39400;49.744;7.012;2023-02-10T07:30:25;46.63;;;21.85;;
33453;SDS011;39400;49.744;7.012;2023-02-10T07:32:50;40.85;;;21.20;;
33453;SDS011;39400;49.744;7.012;2023-02-10T07:35:16;41.15;;;19.73;;
33453;SDS011;39400;49.744;7.012;2023-02-10T07:37:41;39.08;;;19.25;;
33453;SDS011;39400;49.744;7.012;2023-02-10T07:40:07;40.75;;;20.75;;
33453;SDS011;39400;49.744;7.012;2023-02-10T07:42:32;41.70;;;20.08;;
33453;SDS011;39400;49.744;7.012;2023-02-10T07:45:11;40.33;;;19.48;;
33453;SDS011;39400;49.744;7.012;2023-02-10T07:47:36;37.58;;;18.60;;
33453;SDS011;39400;49.744;7.012;2023-02-10T07:50:02;32.33;;;17.73;;
33453;SDS011;39400;49.744;7.012;2023-02-10T07:52:27;37.92;;;20.90;;
33453;SDS011;39400;49.744;7.012;2023-02-10T07:54:53;34.38;;;17.35;;
33453;SDS011;39400;49.744;7.012;2023-02-10T07:57:18;36.03;;;17.70;;
33453;SDS011;39400;49.744;7.012;2023-02-10T07:59:43;35.13;;;17.75;;
33453;SDS011;39400;49.744;7.012;2023-02-10T08:02:09;32.38;;;18.55;;
33453;SDS011;39400;49.744;7.012;2023-02-10T08:04:35;37.60;;;20.17;;
33453;SDS011;39400;49.744;7.012;2023-02-10T08:07:01;33.47;;;16.98;;
33453;SDS011;39400;49.744;7.012;2023-02-10T08:09:26;33.30;;;17.45;;
33453;SDS011;39400;49.744;7.012;2023-02-10T08:11:52;34.30;;;18.00;;
33453;SDS011;39400;49.744;7.012;2023-02-10T08:14:17;34.13;;;17.25;;
33453;SDS011;39400;49.744;7.012;2023-02-10T08:16:42;38.85;;;19.85;;
33453;SDS011;39400;49.744;7.012;2023-02-10T08:19:07;37.47;;;19.65;;
33453;SDS011;39400;49.744;7.012;2023-02-10T08:21:33;45.85;;;21.40;;
33453;SDS011;39400;49.744;7.012;2023-02-10T08:23:58;41.53;;;20.40;;
33453;SDS011;39400;49.744;7.012;2023-02-10T08:26:24;45.65;;;23.17;;
33453;SDS011;39400;49.744;7.012;2023-02-10T08:28:50;54.05;;;24.05;;
33453;SDS011;39400;49.744;7.012;2023-02-10T08:31:15;47.60;;;22.67;;
33453;SDS011;39400;49.744;7.012;2023-02-10T08:33:41;44.08;;;21.52;;
33453;SDS011;39400;49.744;7.012;2023-02-10T08:36:10;50.65;;;22.17;;
33453;SDS011;39400;49.744;7.012;2023-02-10T08:38:37;50.53;;;23.05;;
33453;SDS011;39400;49.744;7.012;2023-02-10T08:41:03;51.42;;;22.02;;
33453;SDS011;39400;49.744;7.012;2023-02-10T08:43:28;44.65;;;21.88;;
33453;SDS011;39400;49.744;7.012;2023-02-10T08:45:55;52.25;;;23.38;;
33453;SDS011;39400;49.744;7.012;2023-02-10T08:48:22;54.80;;;24.27;;
33453;SDS011;39400;49.744;7.012;2023-02-10T08:50:47;54.63;;;24.45;;
33453;SDS011;39400;49.744;7.012;2023-02-10T08:53:13;51.95;;;23.70;;
33453;SDS011;39400;49.744;7.012;2023-02-10T08:55:38;49.33;;;22.58;;
33453;SDS011;39400;49.744;7.012;2023-02-10T08:58:04;51.50;;;24.20;;
33453;SDS011;39400;49.744;7.012;2023-02-10T09:00:29;46.20;;;21.17;;
33453;SDS011;39400;49.744;7.012;2023-02-10T09:02:54;64.63;;;25.67;;
33453;SDS011;39400;49.744;7.012;2023-02-10T09:05:20;47.17;;;22.05;;
33453;SDS011;39400;49.744;7.012;2023-02-10T09:07:45;54.63;;;24.67;;
33453;SDS011;39400;49.744;7.012;2023-02-10T09:10:12;54.20;;;24.27;;
33453;SDS011;39400;49.744;7.012;2023-02-10T09:12:38;52.45;;;23.65;;
33453;SDS011;39400;49.744;7.012;2023-02-10T09:15:04;49.70;;;22.75;;
33453;SDS011;39400;49.744;7.012;2023-02-10T09:17:30;47.20;;;22.27;;
33453;SDS011;39400;49.744;7.012;2023-02-10T09:19:55;49.50;;;23.17;;
33453;SDS011;39400;49.744;7.012;2023-02-10T09:22:21;54.35;;;24.30;;
33453;SDS011;39400;49.744;7.012;2023-02-10T09:24:46;45.00;;;20.63;;
33453;SDS011;39400;49.744;7.012;2023-02-10T09:27:12;48.35;;;22.23;;
33453;SDS011;39400;49.744;7.012;2023-02-10T09:29:37;52.58;;;25.10;;
33453;SDS011;39400;49.744;7.012;2023-02-10T09:32:02;47.28;;;22.88;;
33453;SDS011;39400;49.744;7.012;2023-02-10T09:34:28;51.25;;;24.08;;
33453;SDS011;39400;49.744;7.012;2023-02-10T09:36:53;52.78;;;25.48;;
33453;SDS011;39400;49.744;7.012;2023-02-10T09:39:19;51.10;;;22.17;;
33453;SDS011;39400;49.744;7.012;2023-02-10T09:41:45;48.25;;;23.15;;
33453;SDS011;39400;49.744;7.012;2023-02-10T09:55:27;42.70;;;19.90;;
33453;SDS011;39400;49.744;7.012;2023-02-10T09:57:59;48.08;;;23.50;;
33453;SDS011;39400;49.744;7.012;2023-02-10T10:00:30;44.90;;;21.05;;
33453;SDS011;39400;49.744;7.012;2023-02-10T10:02:59;48.95;;;23.08;;
33453;SDS011;39400;49.744;7.012;2023-02-10T10:10:52;52.20;;;23.23;;
33453;SDS011;39400;49.744;7.012;2023-02-10T10:13:23;48.08;;;23.77;;
33453;SDS011;39400;49.744;7.012;2023-02-10T10:15:56;53.38;;;24.45;;
33453;SDS011;39400;49.744;7.012;2023-02-10T10:18:47;49.28;;;24.80;;
33453;SDS011;39400;49.744;7.012;2023-02-10T10:24:19;54.35;;;22.58;;
33453;SDS011;39400;49.744;7.012;2023-02-10T10:27:17;48.63;;;22.00;;
33453;SDS011;39400;49.744;7.012;2023-02-10T10:29:54;53.00;;;24.95;;
33453;SDS011;39400;49.744;7.012;2023-02-10T10:32:55;46.85;;;23.58;;
33453;SDS011;39400;49.744;7.012;2023-02-10T10:35:25;46.80;;;23.30;;
33453;SDS011;39400;49.744;7.012;2023-02-10T10:37:58;45.40;;;22.33;;
33453;SDS011;39400;49.744;7.012;2023-02-10T10:40:25;40.83;;;19.05;;
33453;SDS011;39400;49.744;7.012;2023-02-10T10:42:58;39.45;;;18.05;;
33453;SDS011;39400;49.744;7.012;2023-02-10T10:45:29;44.03;;;21.48;;
33453;SDS011;39400;49.744;7.012;2023-02-10T10:48:00;46.90;;;20.60;;
33453;SDS011;39400;49.744;7.012;2023-02-10T10:50:31;43.00;;;21.65;;
33453;SDS011;39400;49.744;7.012;2023-02-10T10:52:57;44.33;;;20.35;;
33453;SDS011;39400;49.744;7.012;2023-02-10T10:58:10;44.38;;;21.98;;
33453;SDS011;39400;49.744;7.012;2023-02-10T11:00:52;50.55;;;24.45;;
33453;SDS011;39400;49.744;7.012;2023-02-10T11:03:19;45.58;;;22.42;;
33453;SDS011;39400;49.744;7.012;2023-02-10T11:05:56;40.13;;;21.08;;
33453;SDS011;39400;49.744;7.012;2023-02-10T11:08:23;41.83;;;20.48;;
33453;SDS011;39400;49.744;7.012;2023-02-10T11:10:55;41.65;;;21.02;;
33453;SDS011;39400;49.744;7.012;2023-02-10T11:13:24;48.97;;;21.48;;
33453;SDS011;39400;49.744;7.012;2023-02-10T11:15:58;47.45;;;19.30;;
33453;SDS011;39400;49.744;7.012;2023-02-10T11:18:35;40.03;;;20.13;;
33453;SDS011;39400;49.744;7.012;2023-02-10T11:21:06;38.75;;;20.42;;
33453;SDS011;39400;49.744;7.012;2023-02-10T11:23:50;39.67;;;20.85;;
33453;SDS011;39400;49.744;7.012;2023-02-10T11:26:20;45.28;;;22.98;;
33453;SDS011;39400;49.744;7.012;2023-02-10T11:28:48;40.38;;;18.80;;
33453;SDS011;39400;49.744;7.012;2023-02-10T11:31:30;35.60;;;18.77;;
33453;SDS011;39400;49.744;7.012;2023-02-10T11:34:02;37.17;;;18.75;;
33453;SDS011;39400;49.744;7.012;2023-02-10T11:36:39;40.13;;;19.60;;
33453;SDS011;39400;49.744;7.012;2023-02-10T11:39:14;43.47;;;22.33;;
33453;SDS011;39400;49.744;7.012;2023-02-10T11:41:44;40.45;;;20.52;;
33453;SDS011;39400;49.744;7.012;2023-02-10T11:44:22;45.95;;;21.88;;
33453;SDS011;39400;49.744;7.012;2023-02-10T11:49:42;41.60;;;21.08;;
33453;SDS011;39400;49.744;7.012;2023-02-10T11:52:09;37.55;;;19.10;;
33453;SDS011;39400;49.744;7.012;2023-02-10T11:54:35;35.20;;;18.40;;
33453;SDS011;39400;49.744;7.012;2023-02-10T12:00:00;46.05;;;23.58;;
33453;SDS011;39400;49.744;7.012;2023-02-10T12:02:43;43.67;;;21.25;;
33453;SDS011;39400;49.744;7.012;2023-02-10T12:05:37;42.15;;;22.73;;
33453;SDS011;39400;49.744;7.012;2023-02-10T12:13:15;54.25;;;27.33;;
33453;SDS011;39400;49.744;7.012;2023-02-10T12:26:37;43.05;;;21.58;;
33453;SDS011;39400;49.744;7.012;2023-02-10T12:29:15;43.90;;;22.15;;
33453;SDS011;39400;49.744;7.012;2023-02-10T12:37:40;44.85;;;22.73;;
33453;SDS011;39400;49.744;7.012;2023-02-10T12:53:36;33.97;;;17.48;;
33453;SDS011;39400;49.744;7.012;2023-02-10T12:56:49;37.92;;;19.15;;
33453;SDS011;39400;49.744;7.012;2023-02-10T12:59:04;30.73;;;16.35;;
33453;SDS011;39400;49.744;7.012;2023-02-10T13:01:42;34.50;;;16.73;;
33453;SDS011;39400;49.744;7.012;2023-02-10T13:04:18;39.38;;;20.38;;
33453;SDS011;39400;49.744;7.012;2023-02-10T13:06:53;36.63;;;18.08;;
33453;SDS011;39400;49.744;7.012;2023-02-10T13:09:31;36.15;;;19.25;;
33453;SDS011;39400;49.744;7.012;2023-02-10T13:14:48;30.30;;;15.70;;
33453;SDS011;39400;49.744;7.012;2023-02-10T13:25:14;34.03;;;16.02;;
33453;SDS011;39400;49.744;7.012;2023-02-10T13:30:41;50.63;;;24.65;;
33453;SDS011;39400;49.744;7.012;2023-02-10T13:33:31;35.40;;;18.73;;
33453;SDS011;39400;49.744;7.012;2023-02-10T13:36:14;38.88;;;18.70;;
33453;SDS011;39400;49.744;7.012;2023-02-10T13:38:42;45.35;;;19.35;;
33453;SDS011;39400;49.744;7.012;2023-02-10T13:41:22;50.55;;;23.25;;
33453;SDS011;39400;49.744;7.012;2023-02-10T13:43:54;42.97;;;21.65;;
33453;SDS011;39400;49.744;7.012;2023-02-10T13:46:23;41.88;;;21.70;;
33453;SDS011;39400;49.744;7.012;2023-02-10T13:48:56;37.08;;;19.95;;
33453;SDS011;39400;49.744;7.012;2023-02-10T13:51:29;37.67;;;18.45;;
33453;SDS011;39400;49.744;7.012;2023-02-10T13:53:57;33.67;;;16.60;;
33453;SDS011;39400;49.744;7.012;2023-02-10T13:56:27;33.95;;;17.00;;
33453;SDS011;39400;49.744;7.012;2023-02-10T14:01:40;40.03;;;18.88;;
33453;SDS011;39400;49.744;7.012;2023-02-10T14:04:29;31.50;;;16.60;;
33453;SDS011;39400;49.744;7.012;2023-02-10T14:07:12;31.83;;;16.98;;
33453;SDS011;39400;49.744;7.012;2023-02-10T14:09:39;29.35;;;15.23;;
33453;SDS011;39400;49.744;7.012;2023-02-10T14:12:18;30.67;;;15.60;;
33453;SDS011;39400;49.744;7.012;2023-02-10T14:14:49;28.45;;;15.48;;
33453;SDS011;39400;49.744;7.012;2023-02-10T14:19:50;32.70;;;16.02;;
33453;SDS011;39400;49.744;7.012;2023-02-10T14:24:54;29.55;;;16.17;;
33453;SDS011;39400;49.744;7.012;2023-02-10T14:27:22;36.40;;;18.60;;
33453;SDS011;39400;49.744;7.012;2023-02-10T14:29:53;35.35;;;17.70;;
33453;SDS011;39400;49.744;7.012;2023-02-10T14:32:21;32.03;;;16.55;;
33453;SDS011;39400;49.744;7.012;2023-02-10T14:34:56;36.97;;;16.08;;
33453;SDS011;39400;49.744;7.012;2023-02-10T14:37:27;35.35;;;17.55;;
33453;SDS011;39400;49.744;7.012;2023-02-10T14:39:56;30.90;;;15.07;;
33453;SDS011;39400;49.744;7.012;2023-02-10T14:42:24;33.35;;;16.90;;
33453;SDS011;39400;49.744;7.012;2023-02-10T14:44:53;30.83;;;15.40;;
33453;SDS011;39400;49.744;7.012;2023-02-10T14:47:21;28.07;;;14.67;;
33453;SDS011;39400;49.744;7.012;2023-02-10T14:49:50;33.53;;;16.45;;
33453;SDS011;39400;49.744;7.012;2023-02-10T14:52:26;34.47;;;17.13;;
33453;SDS011;39400;49.744;7.012;2023-02-10T14:54:53;29.20;;;16.60;;
33453;SDS011;39400;49.744;7.012;2023-02-10T14:57:19;35.72;;;17.17;;
33453;SDS011;39400;49.744;7.012;2023-02-10T14:59:56;33.53;;;14.63;;
33453;SDS011;39400;49.744;7.012;2023-02-10T15:02:23;31.95;;;15.63;;
33453;SDS011;39400;49.744;7.012;2023-02-10T15:04:52;30.73;;;14.45;;
33453;SDS011;39400;49.744;7.012;2023-02-10T15:07:21;26.92;;;13.60;;
33453;SDS011;39400;49.744;7.012;2023-02-10T15:09:50;28.73;;;14.85;;
33453;SDS011;39400;49.744;7.012;2023-02-10T15:12:16;31.95;;;14.93;;
33453;SDS011;39400;49.744;7.012;2023-02-10T15:14:48;29.92;;;14.55;;
33453;SDS011;39400;49.744;7.012;2023-02-10T15:17:45;31.00;;;14.73;;
33453;SDS011;39400;49.744;7.012;2023-02-10T15:27:53;26.88;;;13.32;;
33453;SDS011;39400;49.744;7.012;2023-02-10T15:30:20;37.45;;;14.82;;
33453;SDS011;39400;49.744;7.012;2023-02-10T15:37:46;25.63;;;13.02;;
33453;SDS011;39400;49.744;7.012;2023-02-10T15:40:18;27.10;;;13.30;;
33453;SDS011;39400;49.744;7.012;2023-02-10T15:43:46;22.42;;;12.60;;
33453;SDS011;39400;49.744;7.012;2023-02-10T15:45:46;24.42;;;12.02;;
33453;SDS011;39400;49.744;7.012;2023-02-10T15:48:14;24.80;;;11.70;;
33453;SDS011;39400;49.744;7.012;2023-02-10T15:50:44;23.48;;;12.85;;
33453;SDS011;39400;49.744;7.012;2023-02-10T15:53:09;25.65;;;12.00;;
33453;SDS011;39400;49.744;7.012;2023-02-10T15:55:41;22.25;;;12.18;;
33453;SDS011;39400;49.744;7.012;2023-02-10T15:58:08;24.05;;;11.85;;
33453;SDS011;39400;49.744;7.012;2023-02-10T16:00:36;21.92;;;11.38;;
33453;SDS011;39400;49.744;7.012;2023-02-10T16:03:02;23.05;;;11.73;;
33453;SDS011;39400;49.744;7.012;2023-02-10T16:05:29;23.73;;;11.15;;
33453;SDS011;39400;49.744;7.012;2023-02-10T16:07:57;24.85;;;12.52;;
33453;SDS011;39400;49.744;7.012;2023-02-10T16:10:27;23.38;;;11.63;;
33453;SDS011;39400;49.744;7.012;2023-02-10T16:12:53;23.90;;;11.98;;
33453;SDS011;39400;49.744;7.012;2023-02-10T16:15:20;31.88;;;14.40;;
33453;SDS011;39400;49.744;7.012;2023-02-10T16:17:49;23.45;;;12.85;;
33453;SDS011;39400;49.744;7.012;2023-02-10T16:20:24;27.02;;;13.95;;
33453;SDS011;39400;49.744;7.012;2023-02-10T16:22:52;27.80;;;13.90;;
33453;SDS011;39400;49.744;7.012;2023-02-10T16:25:18;24.35;;;13.40;;
33453;SDS011;39400;49.744;7.012;2023-02-10T16:27:45;28.05;;;13.07;;